LPPT Airport Information

Runway Information
Runway 03 Length 12484 ft width 148 ft
Elevation 331 ft Threshold 296 ft Heading 22
Runway 21 Length 12484 ft Width 148 ft
Elevation 347 ft Threshold 1969 ft Heading 202
Runway 17 Length 7874 ft width 148 ft
Elevation 374 ft Threshold 0 ft Heading 168
Runway 35 Length 7874 ft Width 148 ft
Elevation 332 ft Threshold 492 ft Heading 348
Airport Frequencies
Type APP Name APP Frequency 119.1 MHZ
Type ATIS Name ATIS Frequency 124.15 MHZ
Type CLD Name CLD Frequency 118.95 MHZ
Type GND Name GND Frequency 121.75 MHZ
Type INFO Name INFO Frequency 123.75 MHZ
Type RDO Name RDO Frequency 127.9 MHZ
Type TWR Name TWR Frequency 118.1 MHZ
Airport Navaids
Type NDB Name Caparica Frequency 389 KHZ
Type NDB Name Arruda Frequency 382 KHZ
Type VOR-DME Name Lisboa Frequency 114800 KHZ
Airport Weather Information & NOTAM
ADDS - METARS form results

(1020 UTC 23 March 2019)
Data provider http://aviationweather.gov/metar/data/
 
METAR text: LPPT 231000Z 07009KT CAVOK 15/05 Q1023
Conditions at: LPPT (LISBON/PORTELA , PT) observed 1000 UTC 23 March 2019
Temperature: 15.0°C (59°F)
Dewpoint: 5.0°C (41°F) [RH = 51%]
Pressure (altimeter): 30.21 inches Hg (1023.0 mb)
Winds: from the ENE (70 degrees) at 10 MPH (9 knots; 4.6 m/s)
Visibility: 6 or more miles (10+ km)
Ceiling: ceiling and visibility are OK
Clouds: unknown
Weather: no significant weather observed at this time

METAR text: LPPT 230930Z 05010KT CAVOK 13/04 Q1023
Conditions at: LPPT (LISBON/PORTELA , PT) observed 0930 UTC 23 March 2019
Temperature: 13.0°C (55°F)
Dewpoint: 4.0°C (39°F) [RH = 54%]
Pressure (altimeter): 30.21 inches Hg (1023.0 mb)
Winds: from the NE (50 degrees) at 12 MPH (10 knots; 5.1 m/s)
Visibility: 6 or more miles (10+ km)
Ceiling: ceiling and visibility are OK
Clouds: unknown
Weather: no significant weather observed at this time

Forecast for: LPPT (LISBON/PORTELA , PT)
Text: TAF LPPT 230500Z 2306/2412 05007KT CAVOK
Forecast period: 0600 to 1000 UTC 23 March 2019
Forecast type: FROM: standard forecast or significant change
Winds: from the NE (50 degrees) at 8 MPH (7 knots; 3.6 m/s)
Visibility: 6 or more miles 10+ km)
Ceiling: unknown
Clouds: missing
Weather: NSW  (no significant weather)
Text: BECMG 2310/2312 09012KT
Forecast period: 1000 to 1800 UTC 23 March 2019
Forecast type: BECOMING: Conditions expected to become as follows by 1200 UTC 23 March 2019
Winds: from the E (90 degrees) at 14 MPH (12 knots; 6.2 m/s)
Visibility: 6 or more miles 10+ km)
Ceiling: unknown
Clouds: missing
Weather: NSW  (no significant weather)
Text: BECMG 2318/2320 02005KT
Forecast period: 1800 UTC 23 March 2019 to 1200 UTC 24 March 2019
Forecast type: BECOMING: Conditions expected to become as follows by 2000 UTC 23 March 2019
Winds: from the NNE (20 degrees) at 6 MPH (5 knots; 2.6 m/s)
Visibility: 6 or more miles 10+ km)
Ceiling: unknown
Clouds: missing
Weather: NSW  (no significant weather)